sensor_id;sensor_type;location;lat;lon;timestamp;pressure;altitude;pressure_sealevel;temperature;humidity
57600;BME280;43426;43.594;24.334;2023-04-27T00:00:36;100895.00;;;10.56;84.21
57600;BME280;43426;43.594;24.334;2023-04-27T00:03:01;100886.59;;;10.51;84.72
57600;BME280;43426;43.594;24.334;2023-04-27T00:05:35;100887.94;;;10.55;83.49
57600;BME280;43426;43.594;24.334;2023-04-27T00:08:06;100898.03;;;10.53;83.00
57600;BME280;43426;43.594;24.334;2023-04-27T00:10:31;100872.91;;;10.36;84.94
57600;BME280;43426;43.594;24.334;2023-04-27T00:12:57;100872.34;;;10.32;83.95
57600;BME280;43426;43.594;24.334;2023-04-27T00:15:23;100845.69;;;10.13;81.73
57600;BME280;43426;43.594;24.334;2023-04-27T00:17:48;100901.91;;;10.50;80.47
57600;BME280;43426;43.594;24.334;2023-04-27T00:20:14;100906.91;;;10.29;79.09
57600;BME280;43426;43.594;24.334;2023-04-27T00:22:39;100906.38;;;10.25;80.34
57600;BME280;43426;43.594;24.334;2023-04-27T00:25:05;100895.53;;;10.00;81.69
57600;BME280;43426;43.594;24.334;2023-04-27T00:27:31;100906.81;;;9.96;83.01
57600;BME280;43426;43.594;24.334;2023-04-27T00:29:59;100883.78;;;9.67;84.33
57600;BME280;43426;43.594;24.334;2023-04-27T00:32:25;100890.28;;;9.91;84.56
57600;BME280;43426;43.594;24.334;2023-04-27T00:34:50;100892.09;;;9.82;85.33
57600;BME280;43426;43.594;24.334;2023-04-27T00:37:15;100896.84;;;9.88;86.08
57600;BME280;43426;43.594;24.334;2023-04-27T00:39:41;100908.84;;;10.02;86.45
57600;BME280;43426;43.594;24.334;2023-04-27T00:42:06;100896.19;;;9.94;86.73
57600;BME280;43426;43.594;24.334;2023-04-27T00:44:35;100905.66;;;9.98;87.26
57600;BME280;43426;43.594;24.334;2023-04-27T00:47:01;100903.44;;;10.02;87.74
57600;BME280;43426;43.594;24.334;2023-04-27T00:49:26;100908.50;;;10.05;88.15
57600;BME280;43426;43.594;24.334;2023-04-27T00:51:54;100887.41;;;9.92;88.33
57600;BME280;43426;43.594;24.334;2023-04-27T00:54:22;100907.00;;;10.02;88.47
57600;BME280;43426;43.594;24.334;2023-04-27T00:56:49;100902.63;;;10.01;88.57
57600;BME280;43426;43.594;24.334;2023-04-27T00:59:16;100900.91;;;10.00;88.15
57600;BME280;43426;43.594;24.334;2023-04-27T01:01:42;100890.09;;;9.92;88.25
57600;BME280;43426;43.594;24.334;2023-04-27T01:04:08;100895.34;;;9.94;88.04
57600;BME280;43426;43.594;24.334;2023-04-27T01:06:33;100900.22;;;9.90;88.31
57600;BME280;43426;43.594;24.334;2023-04-27T01:08:59;100884.00;;;9.74;89.47
57600;BME280;43426;43.594;24.334;2023-04-27T01:11:24;100913.38;;;9.93;89.85
57600;BME280;43426;43.594;24.334;2023-04-27T01:13:50;100918.44;;;9.96;89.82
57600;BME280;43426;43.594;24.334;2023-04-27T01:16:16;100931.03;;;9.87;91.31
57600;BME280;43426;43.594;24.334;2023-04-27T01:18:42;100908.69;;;9.69;91.70
57600;BME280;43426;43.594;24.334;2023-04-27T01:21:08;100879.31;;;9.49;92.11
57600;BME280;43426;43.594;24.334;2023-04-27T01:23:34;100931.19;;;9.86;92.54
57600;BME280;43426;43.594;24.334;2023-04-27T01:25:59;100913.31;;;9.77;92.55
57600;BME280;43426;43.594;24.334;2023-04-27T01:28:25;100905.84;;;9.70;92.47
57600;BME280;43426;43.594;24.334;2023-04-27T01:30:50;100913.25;;;9.68;91.56
57600;BME280;43426;43.594;24.334;2023-04-27T01:33:16;100917.66;;;9.69;92.03
57600;BME280;43426;43.594;24.334;2023-04-27T01:35:42;100907.25;;;9.48;93.03
57600;BME280;43426;43.594;24.334;2023-04-27T01:38:07;100919.50;;;9.43;94.43
57600;BME280;43426;43.594;24.334;2023-04-27T01:40:32;100937.56;;;9.50;94.91
57600;BME280;43426;43.594;24.334;2023-04-27T01:42:58;100922.19;;;9.43;95.37
57600;BME280;43426;43.594;24.334;2023-04-27T01:45:24;100926.81;;;9.50;94.92
57600;BME280;43426;43.594;24.334;2023-04-27T01:47:50;100911.25;;;9.36;94.33
57600;BME280;43426;43.594;24.334;2023-04-27T01:50:16;100910.31;;;9.27;94.92
57600;BME280;43426;43.594;24.334;2023-04-27T01:52:42;100907.53;;;9.11;95.47
57600;BME280;43426;43.594;24.334;2023-04-27T01:55:07;100913.81;;;9.19;95.76
57600;BME280;43426;43.594;24.334;2023-04-27T01:57:33;100884.09;;;9.03;94.99
57600;BME280;43426;43.594;24.334;2023-04-27T01:59:58;100901.16;;;9.12;95.18
57600;BME280;43426;43.594;24.334;2023-04-27T02:02:23;100925.31;;;9.30;95.15
57600;BME280;43426;43.594;24.334;2023-04-27T02:04:49;100905.03;;;9.44;92.90
57600;BME280;43426;43.594;24.334;2023-04-27T02:07:14;100933.28;;;9.40;93.52
57600;BME280;43426;43.594;24.334;2023-04-27T02:09:40;100943.19;;;9.31;93.98
57600;BME280;43426;43.594;24.334;2023-04-27T02:12:05;100936.94;;;9.30;93.81
57600;BME280;43426;43.594;24.334;2023-04-27T02:14:31;100933.50;;;9.20;94.18
57600;BME280;43426;43.594;24.334;2023-04-27T02:16:56;100929.44;;;9.16;93.80
57600;BME280;43426;43.594;24.334;2023-04-27T02:19:22;100930.03;;;9.01;94.86
57600;BME280;43426;43.594;24.334;2023-04-27T02:21:47;100932.03;;;8.81;96.28
57600;BME280;43426;43.594;24.334;2023-04-27T02:24:12;100956.53;;;8.96;96.00
57600;BME280;43426;43.594;24.334;2023-04-27T02:26:38;100921.09;;;8.83;95.54
57600;BME280;43426;43.594;24.334;2023-04-27T02:29:03;100944.72;;;8.89;95.48
57600;BME280;43426;43.594;24.334;2023-04-27T02:31:29;100932.09;;;8.72;96.50
57600;BME280;43426;43.594;24.334;2023-04-27T02:33:54;100925.66;;;8.64;96.84
57600;BME280;43426;43.594;24.334;2023-04-27T02:36:20;100939.03;;;8.74;96.62
57600;BME280;43426;43.594;24.334;2023-04-27T02:38:46;100927.34;;;8.65;96.93
57600;BME280;43426;43.594;24.334;2023-04-27T02:41:11;100955.41;;;8.81;97.17
57600;BME280;43426;43.594;24.334;2023-04-27T02:43:36;100927.19;;;8.67;96.99
57600;BME280;43426;43.594;24.334;2023-04-27T02:46:02;100935.28;;;8.67;97.66
57600;BME280;43426;43.594;24.334;2023-04-27T02:48:29;100960.16;;;8.69;98.17
57600;BME280;43426;43.594;24.334;2023-04-27T02:50:54;100946.94;;;8.58;99.06
57600;BME280;43426;43.594;24.334;2023-04-27T02:53:21;100958.44;;;8.50;99.85
57600;BME280;43426;43.594;24.334;2023-04-27T02:55:46;100939.81;;;8.39;100.00
57600;BME280;43426;43.594;24.334;2023-04-27T02:58:12;100964.06;;;8.57;100.00
57600;BME280;43426;43.594;24.334;2023-04-27T03:00:37;100945.66;;;8.34;100.00
57600;BME280;43426;43.594;24.334;2023-04-27T03:03:05;100962.53;;;8.54;100.00
57600;BME280;43426;43.594;24.334;2023-04-27T03:05:35;100960.84;;;8.53;100.00
57600;BME280;43426;43.594;24.334;2023-04-27T03:08:01;100943.22;;;8.41;100.00
57600;BME280;43426;43.594;24.334;2023-04-27T03:10:26;100980.28;;;8.47;100.00
57600;BME280;43426;43.594;24.334;2023-04-27T03:12:52;100964.22;;;8.27;100.00
57600;BME280;43426;43.594;24.334;2023-04-27T03:15:17;100963.81;;;8.22;100.00
57600;BME280;43426;43.594;24.334;2023-04-27T03:17:42;100978.44;;;8.47;100.00
57600;BME280;43426;43.594;24.334;2023-04-27T03:20:08;100977.03;;;8.43;100.00
57600;BME280;43426;43.594;24.334;2023-04-27T03:22:35;100989.06;;;8.49;100.00
57600;BME280;43426;43.594;24.334;2023-04-27T03:25:01;100964.16;;;8.37;100.00
57600;BME280;43426;43.594;24.334;2023-04-27T03:27:27;100992.72;;;8.48;100.00
57600;BME280;43426;43.594;24.334;2023-04-27T03:29:52;100984.28;;;8.61;100.00
57600;BME280;43426;43.594;24.334;2023-04-27T03:32:18;100994.44;;;8.67;100.00
57600;BME280;43426;43.594;24.334;2023-04-27T03:34:43;100993.81;;;8.73;100.00
57600;BME280;43426;43.594;24.334;2023-04-27T03:37:09;100973.22;;;8.64;100.00
57600;BME280;43426;43.594;24.334;2023-04-27T03:39:34;100971.38;;;8.64;100.00
57600;BME280;43426;43.594;24.334;2023-04-27T03:42:00;100997.59;;;8.80;100.00
57600;BME280;43426;43.594;24.334;2023-04-27T03:44:28;100994.81;;;8.90;100.00
57600;BME280;43426;43.594;24.334;2023-04-27T03:46:55;101006.53;;;9.17;100.00
57600;BME280;43426;43.594;24.334;2023-04-27T03:49:21;100981.53;;;8.89;100.00
57600;BME280;43426;43.594;24.334;2023-04-27T03:51:47;100987.47;;;8.92;100.00
57600;BME280;43426;43.594;24.334;2023-04-27T03:54:12;100999.28;;;8.99;100.00
57600;BME280;43426;43.594;24.334;2023-04-27T03:56:37;101010.06;;;8.99;100.00
57600;BME280;43426;43.594;24.334;2023-04-27T03:59:03;100986.38;;;8.85;100.00
57600;BME280;43426;43.594;24.334;2023-04-27T04:01:29;101002.88;;;9.08;100.00
57600;BME280;43426;43.594;24.334;2023-04-27T04:03:55;100996.91;;;8.96;100.00
57600;BME280;43426;43.594;24.334;2023-04-27T04:06:20;101022.44;;;9.10;97.83
57600;BME280;43426;43.594;24.334;2023-04-27T04:08:45;101013.97;;;9.05;95.96
57600;BME280;43426;43.594;24.334;2023-04-27T04:11:11;101017.88;;;9.11;95.38
57600;BME280;43426;43.594;24.334;2023-04-27T04:13:36;101030.81;;;9.25;95.14
57600;BME280;43426;43.594;24.334;2023-04-27T04:18:27;101014.59;;;9.17;94.59
57600;BME280;43426;43.594;24.334;2023-04-27T04:20:52;101016.13;;;9.19;94.90
57600;BME280;43426;43.594;24.334;2023-04-27T04:23:18;101029.03;;;9.34;94.95
57600;BME280;43426;43.594;24.334;2023-04-27T04:25:44;101043.94;;;9.46;94.66
57600;BME280;43426;43.594;24.334;2023-04-27T04:28:12;101049.56;;;9.53;95.02
57600;BME280;43426;43.594;24.334;2023-04-27T04:30:37;101030.88;;;9.51;94.14
57600;BME280;43426;43.594;24.334;2023-04-27T04:33:04;101022.63;;;9.53;92.57
57600;BME280;43426;43.594;24.334;2023-04-27T04:35:29;101020.25;;;9.50;91.44
57600;BME280;43426;43.594;24.334;2023-04-27T04:37:57;101048.75;;;9.61;91.61
57600;BME280;43426;43.594;24.334;2023-04-27T04:40:23;101032.25;;;9.56;91.42
57600;BME280;43426;43.594;24.334;2023-04-27T04:42:48;101029.28;;;9.67;90.88
57600;BME280;43426;43.594;24.334;2023-04-27T04:45:14;101037.47;;;9.83;90.33
57600;BME280;43426;43.594;24.334;2023-04-27T04:47:39;101036.66;;;9.91;90.40
57600;BME280;43426;43.594;24.334;2023-04-27T04:50:06;101055.78;;;10.06;90.68
57600;BME280;43426;43.594;24.334;2023-04-27T04:52:33;101038.56;;;9.99;89.97
57600;BME280;43426;43.594;24.334;2023-04-27T04:54:58;101043.19;;;10.07;88.88
57600;BME280;43426;43.594;24.334;2023-04-27T04:57:24;101066.50;;;10.24;88.34
57600;BME280;43426;43.594;24.334;2023-04-27T04:59:49;101049.94;;;10.19;87.96
57600;BME280;43426;43.594;24.334;2023-04-27T05:02:15;101073.53;;;10.43;88.64
57600;BME280;43426;43.594;24.334;2023-04-27T05:04:40;101075.28;;;10.52;88.38
57600;BME280;43426;43.594;24.334;2023-04-27T05:07:06;101075.31;;;10.61;88.45
57600;BME280;43426;43.594;24.334;2023-04-27T05:09:31;101077.88;;;10.70;89.36
57600;BME280;43426;43.594;24.334;2023-04-27T05:11:57;101086.84;;;10.87;89.89
57600;BME280;43426;43.594;24.334;2023-04-27T05:14:22;101084.34;;;10.94;90.53
57600;BME280;43426;43.594;24.334;2023-04-27T05:16:48;101085.53;;;11.00;89.79
57600;BME280;43426;43.594;24.334;2023-04-27T05:19:15;101094.50;;;11.08;86.99
57600;BME280;43426;43.594;24.334;2023-04-27T05:21:43;101076.88;;;10.88;86.27
57600;BME280;43426;43.594;24.334;2023-04-27T05:24:10;101060.50;;;10.73;85.66
57600;BME280;43426;43.594;24.334;2023-04-27T05:26:35;101093.78;;;10.90;86.36
57600;BME280;43426;43.594;24.334;2023-04-27T05:29:01;101094.84;;;11.05;85.85
57600;BME280;43426;43.594;24.334;2023-04-27T05:31:26;101097.38;;;11.15;84.26
57600;BME280;43426;43.594;24.334;2023-04-27T05:33:52;101087.41;;;11.07;82.93
57600;BME280;43426;43.594;24.334;2023-04-27T05:36:17;101094.16;;;11.12;82.88
57600;BME280;43426;43.594;24.334;2023-04-27T05:38:42;101084.38;;;11.02;80.52
57600;BME280;43426;43.594;24.334;2023-04-27T05:41:08;101068.47;;;10.99;80.80
57600;BME280;43426;43.594;24.334;2023-04-27T05:43:33;101080.66;;;11.12;81.34
57600;BME280;43426;43.594;24.334;2023-04-27T05:45:59;101103.63;;;11.24;80.91
57600;BME280;43426;43.594;24.334;2023-04-27T05:48:25;101092.16;;;11.22;80.88
57600;BME280;43426;43.594;24.334;2023-04-27T05:50:58;101111.94;;;11.39;80.19
57600;BME280;43426;43.594;24.334;2023-04-27T05:53:24;101080.34;;;11.23;79.05
57600;BME280;43426;43.594;24.334;2023-04-27T05:55:50;101112.09;;;11.46;77.88
57600;BME280;43426;43.594;24.334;2023-04-27T05:58:15;101126.44;;;11.46;77.30
57600;BME280;43426;43.594;24.334;2023-04-27T06:00:43;101109.75;;;11.34;77.52
57600;BME280;43426;43.594;24.334;2023-04-27T06:03:08;101112.94;;;11.38;74.70
57600;BME280;43426;43.594;24.334;2023-04-27T06:05:34;101107.69;;;11.36;73.84
57600;BME280;43426;43.594;24.334;2023-04-27T06:07:59;101101.13;;;11.31;71.26
57600;BME280;43426;43.594;24.334;2023-04-27T06:10:25;101106.00;;;11.19;71.53
57600;BME280;43426;43.594;24.334;2023-04-27T06:12:50;101122.91;;;11.29;71.88
57600;BME280;43426;43.594;24.334;2023-04-27T06:15:15;101086.22;;;11.10;70.39
57600;BME280;43426;43.594;24.334;2023-04-27T06:17:41;101101.13;;;11.39;69.82
57600;BME280;43426;43.594;24.334;2023-04-27T06:20:08;101129.16;;;11.54;67.42
57600;BME280;43426;43.594;24.334;2023-04-27T06:22:34;101123.59;;;11.56;69.19
57600;BME280;43426;43.594;24.334;2023-04-27T06:25:01;101110.25;;;11.54;66.35
57600;BME280;43426;43.594;24.334;2023-04-27T06:27:26;101126.13;;;11.66;67.60
57600;BME280;43426;43.594;24.334;2023-04-27T06:29:52;101121.75;;;11.65;65.32
57600;BME280;43426;43.594;24.334;2023-04-27T06:32:17;101121.59;;;11.74;64.16
57600;BME280;43426;43.594;24.334;2023-04-27T06:34:42;101119.88;;;11.90;67.95
57600;BME280;43426;43.594;24.334;2023-04-27T06:37:08;101102.66;;;11.99;65.18
57600;BME280;43426;43.594;24.334;2023-04-27T06:39:33;101078.47;;;11.89;62.63
57600;BME280;43426;43.594;24.334;2023-04-27T06:41:59;101118.66;;;12.34;63.01
57600;BME280;43426;43.594;24.334;2023-04-27T06:44:25;101098.16;;;12.48;62.04
57600;BME280;43426;43.594;24.334;2023-04-27T06:46:50;101112.34;;;12.50;61.97
57600;BME280;43426;43.594;24.334;2023-04-27T06:49:15;101118.22;;;12.62;62.24
57600;BME280;43426;43.594;24.334;2023-04-27T06:51:41;101118.00;;;12.71;61.02
57600;BME280;43426;43.594;24.334;2023-04-27T06:54:06;101121.28;;;12.90;62.69
57600;BME280;43426;43.594;24.334;2023-04-27T06:56:32;101119.59;;;12.89;58.41
57600;BME280;43426;43.594;24.334;2023-04-27T06:58:57;101105.94;;;13.14;60.19
57600;BME280;43426;43.594;24.334;2023-04-27T07:01:23;101093.75;;;13.09;59.25
57600;BME280;43426;43.594;24.334;2023-04-27T07:03:49;101114.47;;;13.02;58.75
57600;BME280;43426;43.594;24.334;2023-04-27T07:06:15;101069.06;;;12.81;60.10
57600;BME280;43426;43.594;24.334;2023-04-27T07:08:41;101116.19;;;13.26;60.06
57600;BME280;43426;43.594;24.334;2023-04-27T07:11:07;101094.34;;;13.28;59.54
57600;BME280;43426;43.594;24.334;2023-04-27T07:13:34;101118.97;;;13.41;60.79
57600;BME280;43426;43.594;24.334;2023-04-27T07:16:00;101120.13;;;13.47;60.08
57600;BME280;43426;43.594;24.334;2023-04-27T07:18:26;101110.56;;;13.36;59.82
57600;BME280;43426;43.594;24.334;2023-04-27T07:20:54;101124.41;;;13.33;58.77
57600;BME280;43426;43.594;24.334;2023-04-27T07:23:20;101072.09;;;13.09;61.22
57600;BME280;43426;43.594;24.334;2023-04-27T07:25:45;101104.50;;;13.26;59.15
57600;BME280;43426;43.594;24.334;2023-04-27T07:28:11;101123.06;;;13.37;60.62
57600;BME280;43426;43.594;24.334;2023-04-27T07:30:37;101126.34;;;13.56;60.05
57600;BME280;43426;43.594;24.334;2023-04-27T07:33:02;101132.72;;;13.63;58.81
57600;BME280;43426;43.594;24.334;2023-04-27T07:35:28;101096.53;;;13.56;59.81
57600;BME280;43426;43.594;24.334;2023-04-27T07:37:54;101127.41;;;13.70;58.24
57600;BME280;43426;43.594;24.334;2023-04-27T07:40:20;101126.88;;;13.51;57.93
57600;BME280;43426;43.594;24.334;2023-04-27T07:42:46;101129.28;;;13.69;57.97
57600;BME280;43426;43.594;24.334;2023-04-27T07:45:11;101124.25;;;13.81;58.23
57600;BME280;43426;43.594;24.334;2023-04-27T07:47:37;101107.31;;;13.64;58.03
57600;BME280;43426;43.594;24.334;2023-04-27T07:50:03;101120.84;;;14.02;60.07
57600;BME280;43426;43.594;24.334;2023-04-27T07:52:30;101127.50;;;14.14;56.62
57600;BME280;43426;43.594;24.334;2023-04-27T07:54:55;101101.84;;;14.02;58.42
57600;BME280;43426;43.594;24.334;2023-04-27T07:57:21;101128.19;;;14.17;57.82
57600;BME280;43426;43.594;24.334;2023-04-27T07:59:46;101112.56;;;14.34;57.03
57600;BME280;43426;43.594;24.334;2023-04-27T08:02:11;101119.69;;;14.64;56.80
57600;BME280;43426;43.594;24.334;2023-04-27T08:04:37;101107.56;;;14.97;57.24
57600;BME280;43426;43.594;24.334;2023-04-27T08:07:05;101101.91;;;15.13;56.24
57600;BME280;43426;43.594;24.334;2023-04-27T08:09:32;101117.31;;;15.49;56.83
57600;BME280;43426;43.594;24.334;2023-04-27T08:11:58;101111.19;;;15.91;54.41
57600;BME280;43426;43.594;24.334;2023-04-27T08:14:23;101119.13;;;15.86;52.72
57600;BME280;43426;43.594;24.334;2023-04-27T08:16:48;101112.25;;;15.90;53.20
57600;BME280;43426;43.594;24.334;2023-04-27T08:19:18;101114.25;;;15.81;51.19
57600;BME280;43426;43.594;24.334;2023-04-27T08:21:43;101107.78;;;15.39;51.26
57600;BME280;43426;43.594;24.334;2023-04-27T08:24:09;101119.69;;;15.38;54.91
57600;BME280;43426;43.594;24.334;2023-04-27T08:26:34;101109.69;;;15.81;51.65
57600;BME280;43426;43.594;24.334;2023-04-27T08:29:00;101109.78;;;15.73;51.98
57600;BME280;43426;43.594;24.334;2023-04-27T08:31:26;101093.53;;;15.58;53.27
57600;BME280;43426;43.594;24.334;2023-04-27T08:33:52;101112.34;;;16.03;52.09
57600;BME280;43426;43.594;24.334;2023-04-27T08:36:19;101090.56;;;16.03;52.53
57600;BME280;43426;43.594;24.334;2023-04-27T08:38:45;101091.63;;;16.02;51.20
57600;BME280;43426;43.594;24.334;2023-04-27T08:41:16;101115.72;;;16.05;53.11
57600;BME280;43426;43.594;24.334;2023-04-27T08:43:41;101094.25;;;15.89;50.56
57600;BME280;43426;43.594;24.334;2023-04-27T08:46:07;101110.63;;;15.95;51.65
57600;BME280;43426;43.594;24.334;2023-04-27T08:48:32;101089.22;;;16.21;52.53
57600;BME280;43426;43.594;24.334;2023-04-27T08:50:58;101101.00;;;16.63;51.76
57600;BME280;43426;43.594;24.334;2023-04-27T08:53:23;101095.72;;;17.03;51.47
57600;BME280;43426;43.594;24.334;2023-04-27T08:55:49;101103.03;;;16.96;50.42
57600;BME280;43426;43.594;24.334;2023-04-27T08:58:14;101076.53;;;16.83;53.27
57600;BME280;43426;43.594;24.334;2023-04-27T09:00:41;101101.19;;;17.03;52.00
57600;BME280;43426;43.594;24.334;2023-04-27T09:03:23;101107.91;;;17.21;49.48
57600;BME280;43426;43.594;24.334;2023-04-27T09:05:50;101099.94;;;17.12;50.86
57600;BME280;43426;43.594;24.334;2023-04-27T09:08:15;101095.13;;;17.28;49.43
57600;BME280;43426;43.594;24.334;2023-04-27T09:13:10;101083.94;;;16.96;47.90
57600;BME280;43426;43.594;24.334;2023-04-27T09:15:42;101087.16;;;16.71;50.12
57600;BME280;43426;43.594;24.334;2023-04-27T09:18:15;101071.44;;;16.66;50.45
57600;BME280;43426;43.594;24.334;2023-04-27T09:20:42;101058.69;;;16.74;49.65
57600;BME280;43426;43.594;24.334;2023-04-27T09:23:08;101057.09;;;16.93;52.30
57600;BME280;43426;43.594;24.334;2023-04-27T09:25:33;101077.31;;;17.32;49.31
57600;BME280;43426;43.594;24.334;2023-04-27T09:27:59;101076.09;;;17.61;49.08
57600;BME280;43426;43.594;24.334;2023-04-27T09:30:26;101056.78;;;17.56;49.34
57600;BME280;43426;43.594;24.334;2023-04-27T09:32:57;101077.34;;;17.85;48.56
57600;BME280;43426;43.594;24.334;2023-04-27T09:35:25;101073.34;;;17.81;49.94
57600;BME280;43426;43.594;24.334;2023-04-27T09:37:52;101071.44;;;17.88;48.40
57600;BME280;43426;43.594;24.334;2023-04-27T09:40:22;101042.06;;;17.64;49.98
57600;BME280;43426;43.594;24.334;2023-04-27T09:42:56;101041.44;;;18.02;48.71
57600;BME280;43426;43.594;24.334;2023-04-27T09:45:23;101072.16;;;18.56;44.89
57600;BME280;43426;43.594;24.334;2023-04-27T09:47:49;101047.72;;;18.02;45.18
57600;BME280;43426;43.594;24.334;2023-04-27T09:50:15;101060.53;;;18.02;47.82
57600;BME280;43426;43.594;24.334;2023-04-27T09:52:41;101041.41;;;17.82;45.72
57600;BME280;43426;43.594;24.334;2023-04-27T09:55:09;101044.16;;;17.82;45.74
57600;BME280;43426;43.594;24.334;2023-04-27T10:01:02;101026.66;;;18.75;47.87
57600;BME280;43426;43.594;24.334;2023-04-27T10:08:59;101030.81;;;19.23;43.39
57600;BME280;43426;43.594;24.334;2023-04-27T10:11:39;101012.75;;;19.47;44.11
57600;BME280;43426;43.594;24.334;2023-04-27T10:14:06;101032.88;;;19.02;45.34
57600;BME280;43426;43.594;24.334;2023-04-27T10:16:53;101022.16;;;18.55;45.53
57600;BME280;43426;43.594;24.334;2023-04-27T10:19:20;101017.84;;;18.73;45.58
57600;BME280;43426;43.594;24.334;2023-04-27T10:22:00;101016.50;;;18.96;45.70
57600;BME280;43426;43.594;24.334;2023-04-27T10:24:35;101015.03;;;18.93;43.09
57600;BME280;43426;43.594;24.334;2023-04-27T10:27:02;101034.28;;;18.66;43.21
57600;BME280;43426;43.594;24.334;2023-04-27T10:29:43;101031.88;;;18.38;44.23
57600;BME280;43426;43.594;24.334;2023-04-27T10:32:17;101039.53;;;18.09;44.89
57600;BME280;43426;43.594;24.334;2023-04-27T10:34:43;101036.81;;;17.82;45.80
57600;BME280;43426;43.594;24.334;2023-04-27T10:37:11;101037.22;;;17.99;47.93
57600;BME280;43426;43.594;24.334;2023-04-27T10:39:40;101022.31;;;18.02;42.59
57600;BME280;43426;43.594;24.334;2023-04-27T10:42:06;101010.53;;;18.08;42.65
57600;BME280;43426;43.594;24.334;2023-04-27T10:44:34;101023.16;;;18.02;45.31
57600;BME280;43426;43.594;24.334;2023-04-27T10:47:11;101025.91;;;17.96;43.57
57600;BME280;43426;43.594;24.334;2023-04-27T10:49:36;101033.03;;;17.83;42.91
57600;BME280;43426;43.594;24.334;2023-04-27T10:52:02;101022.47;;;18.20;43.33
57600;BME280;43426;43.594;24.334;2023-04-27T10:54:30;101029.47;;;19.07;43.48
57600;BME280;43426;43.594;24.334;2023-04-27T10:57:08;100995.78;;;19.38;39.70
57600;BME280;43426;43.594;24.334;2023-04-27T10:59:46;101020.72;;;19.99;37.86
57600;BME280;43426;43.594;24.334;2023-04-27T11:02:11;101003.44;;;20.17;37.23
57600;BME280;43426;43.594;24.334;2023-04-27T11:04:40;101029.47;;;20.08;34.56
57600;BME280;43426;43.594;24.334;2023-04-27T11:07:09;101001.00;;;19.65;34.96
57600;BME280;43426;43.594;24.334;2023-04-27T11:09:35;101010.34;;;19.83;34.84
57600;BME280;43426;43.594;24.334;2023-04-27T11:12:05;101013.53;;;20.17;36.29
57600;BME280;43426;43.594;24.334;2023-04-27T11:14:30;101018.94;;;20.42;35.54
57600;BME280;43426;43.594;24.334;2023-04-27T11:16:56;101028.69;;;20.19;35.06
57600;BME280;43426;43.594;24.334;2023-04-27T11:19:22;101024.50;;;19.48;36.17
57600;BME280;43426;43.594;24.334;2023-04-27T11:21:48;100995.69;;;19.20;37.13
57600;BME280;43426;43.594;24.334;2023-04-27T11:24:13;101001.47;;;19.05;38.35
57600;BME280;43426;43.594;24.334;2023-04-27T11:26:39;101000.75;;;18.84;36.76
57600;BME280;43426;43.594;24.334;2023-04-27T11:29:06;101012.91;;;19.52;37.49
57600;BME280;43426;43.594;24.334;2023-04-27T11:34:06;100999.59;;;20.18;35.89
57600;BME280;43426;43.594;24.334;2023-04-27T11:36:32;101000.38;;;19.63;35.05
57600;BME280;43426;43.594;24.334;2023-04-27T11:38:58;101005.38;;;18.84;36.69
57600;BME280;43426;43.594;24.334;2023-04-27T11:41:32;101006.69;;;18.36;39.28
57600;BME280;43426;43.594;24.334;2023-04-27T11:44:06;100998.56;;;18.09;40.31
57600;BME280;43426;43.594;24.334;2023-04-27T11:46:36;101017.72;;;17.82;42.52
57600;BME280;43426;43.594;24.334;2023-04-27T11:49:06;100998.84;;;17.61;41.94
57600;BME280;43426;43.594;24.334;2023-04-27T11:51:35;101003.47;;;17.33;43.88
57600;BME280;43426;43.594;24.334;2023-04-27T11:54:05;101025.47;;;17.32;43.88
57600;BME280;43426;43.594;24.334;2023-04-27T11:56:39;101021.28;;;17.16;44.79
57600;BME280;43426;43.594;24.334;2023-04-27T11:59:04;101008.69;;;16.95;44.10
57600;BME280;43426;43.594;24.334;2023-04-27T12:01:32;101042.84;;;16.91;45.24
57600;BME280;43426;43.594;24.334;2023-04-27T12:03:58;101018.59;;;16.61;46.18
57600;BME280;43426;43.594;24.334;2023-04-27T12:06:24;101039.97;;;16.57;45.50
57600;BME280;43426;43.594;24.334;2023-04-27T12:08:50;101020.59;;;16.32;45.98
57600;BME280;43426;43.594;24.334;2023-04-27T12:11:15;101041.53;;;16.31;46.98
57600;BME280;43426;43.594;24.334;2023-04-27T12:13:41;101045.91;;;16.26;45.85
57600;BME280;43426;43.594;24.334;2023-04-27T12:16:06;101044.22;;;16.25;48.89
57600;BME280;43426;43.594;24.334;2023-04-27T12:18:31;101043.19;;;16.26;48.05
57600;BME280;43426;43.594;24.334;2023-04-27T12:20:57;101049.97;;;16.43;46.21
57600;BME280;43426;43.594;24.334;2023-04-27T12:23:23;101035.38;;;16.58;46.81
57600;BME280;43426;43.594;24.334;2023-04-27T12:25:48;101044.41;;;16.65;48.13
57600;BME280;43426;43.594;24.334;2023-04-27T12:28:14;101029.38;;;16.82;46.11
57600;BME280;43426;43.594;24.334;2023-04-27T12:30:43;101027.38;;;17.31;45.54
57600;BME280;43426;43.594;24.334;2023-04-27T12:33:08;101039.97;;;17.79;45.55
57600;BME280;43426;43.594;24.334;2023-04-27T12:35:35;101031.56;;;17.67;43.06
57600;BME280;43426;43.594;24.334;2023-04-27T12:38:00;101039.56;;;17.76;44.36
57600;BME280;43426;43.594;24.334;2023-04-27T12:40:27;101033.38;;;18.20;44.34
57600;BME280;43426;43.594;24.334;2023-04-27T12:42:53;101000.38;;;18.74;43.65
57600;BME280;43426;43.594;24.334;2023-04-27T12:45:18;101036.94;;;19.18;43.19
57600;BME280;43426;43.594;24.334;2023-04-27T12:47:44;101032.25;;;19.26;40.19
57600;BME280;43426;43.594;24.334;2023-04-27T12:50:10;101021.06;;;19.02;41.16
57600;BME280;43426;43.594;24.334;2023-04-27T12:52:35;101015.41;;;18.97;41.21
57600;BME280;43426;43.594;24.334;2023-04-27T12:55:03;101034.22;;;18.73;39.04